首页
METAR-TAF:

METAR-TAF

机场 :

Searcy Municipal Airport

Searcy, 阿肯色州, 美国

纬度: 35-12-43N, 经度: 091-44-14W, 海拔: 81米

当前天气观测

该预报发布于11分钟前的02:56 UTC
风速4节,风向南转南东
温度 1°C
湿度 100%
气压 1022 hPa
能見度: 11.3公里
阴天层高于4200英尺
小雨

METAR: KSRC 230256Z AUTO 15004KT 7SM -RA OVC042 01/01 A3019 RMK AO2 SLP227 P0006 60010 T00110011 50001 FZRANO

时间: 21:07 (03:07 UTC)


TAF: 丢失

超过4000个机场的气象观测和天气预报(METAR&TAF报告)。

可查询的气象台以黄色和红色小点在地图上表示。

将鼠标移到小点上方,可查看气象台名称。

然后点击查看天气观测和预报。

如需切换地图:点击带黑十字的绿色按钮放大地图;点击带横线的绿色按钮缩小地图;或者点击绿色箭头查看邻近地区的地图。


METAR-TAF: